Terminal Aerodrome Forecast
Issued by NWS

Home | Current Version | Previous Version | Text Only | Print | Product List | Glossary On
Versions: 1 2 3 4 5 6 7 8 9 10 11 12 13 14 15 16 17 18
000
FTUS43 KPAH 282300
TAFCGI
TAF
KCGI 282339Z 2900/2924 00000KT P6SM SKC
     FM290500 00000KT 3SM BR MIFG SKC
     FM290800 00000KT 1SM BR SKC
      TEMPO 2908/2912 1/4SM FG VV002
     FM291400 02005KT P6SM FEW050=

USA.gov is the U.S. government's official web portal to all federal, state and local government web resources and services.